sensor_id;sensor_type;location;lat;lon;timestamp;pressure;altitude;pressure_sealevel;temperature;humidity
9721;BME280;4899;42.644;23.366;2022-07-19T00:01:22;94987.00;;;17.12;100.00
9721;BME280;4899;42.644;23.366;2022-07-19T00:03:49;94982.88;;;17.11;100.00
9721;BME280;4899;42.644;23.366;2022-07-19T00:06:16;94974.00;;;17.12;100.00
9721;BME280;4899;42.644;23.366;2022-07-19T00:08:43;94970.09;;;17.06;100.00
9721;BME280;4899;42.644;23.366;2022-07-19T00:11:11;94978.72;;;17.10;100.00
9721;BME280;4899;42.644;23.366;2022-07-19T00:13:38;94979.72;;;17.05;100.00
9721;BME280;4899;42.644;23.366;2022-07-19T00:16:05;94964.50;;;16.91;100.00
9721;BME280;4899;42.644;23.366;2022-07-19T00:18:32;94936.59;;;16.52;100.00
9721;BME280;4899;42.644;23.366;2022-07-19T00:20:59;94969.50;;;16.72;100.00
9721;BME280;4899;42.644;23.366;2022-07-19T00:23:26;94984.22;;;16.80;100.00
9721;BME280;4899;42.644;23.366;2022-07-19T00:25:53;94896.56;;;16.16;100.00
9721;BME280;4899;42.644;23.366;2022-07-19T00:28:21;94951.19;;;16.56;100.00
9721;BME280;4899;42.644;23.366;2022-07-19T00:30:48;94960.81;;;16.56;100.00
9721;BME280;4899;42.644;23.366;2022-07-19T00:33:15;94971.66;;;16.70;100.00
9721;BME280;4899;42.644;23.366;2022-07-19T00:35:43;94962.00;;;16.58;100.00
9721;BME280;4899;42.644;23.366;2022-07-19T00:38:11;94917.22;;;16.25;100.00
9721;BME280;4899;42.644;23.366;2022-07-19T00:40:39;94958.88;;;16.65;100.00
9721;BME280;4899;42.644;23.366;2022-07-19T00:43:07;94956.50;;;16.72;100.00
9721;BME280;4899;42.644;23.366;2022-07-19T00:45:36;94869.31;;;16.22;100.00
9721;BME280;4899;42.644;23.366;2022-07-19T00:48:04;94912.34;;;16.48;100.00
9721;BME280;4899;42.644;23.366;2022-07-19T00:50:31;94862.94;;;16.20;100.00
9721;BME280;4899;42.644;23.366;2022-07-19T00:53:01;94971.97;;;16.93;100.00
9721;BME280;4899;42.644;23.366;2022-07-19T00:55:30;94902.94;;;16.31;100.00
9721;BME280;4899;42.644;23.366;2022-07-19T00:57:59;94954.88;;;16.80;100.00
9721;BME280;4899;42.644;23.366;2022-07-19T01:00:28;94958.56;;;16.79;100.00
9721;BME280;4899;42.644;23.366;2022-07-19T01:02:58;94908.47;;;16.42;100.00
9721;BME280;4899;42.644;23.366;2022-07-19T01:05:25;94958.69;;;16.70;100.00
9721;BME280;4899;42.644;23.366;2022-07-19T01:07:52;94860.66;;;16.06;100.00
9721;BME280;4899;42.644;23.366;2022-07-19T01:10:19;94834.94;;;15.89;100.00
9721;BME280;4899;42.644;23.366;2022-07-19T01:12:46;94947.50;;;16.57;100.00
9721;BME280;4899;42.644;23.366;2022-07-19T01:15:15;94854.19;;;15.88;100.00
9721;BME280;4899;42.644;23.366;2022-07-19T01:17:43;94912.13;;;16.28;100.00
9721;BME280;4899;42.644;23.366;2022-07-19T01:20:11;94886.19;;;16.04;100.00
9721;BME280;4899;42.644;23.366;2022-07-19T01:22:40;94913.44;;;16.22;100.00
9721;BME280;4899;42.644;23.366;2022-07-19T01:25:08;94962.13;;;16.50;100.00
9721;BME280;4899;42.644;23.366;2022-07-19T01:27:38;94891.69;;;16.03;100.00
9721;BME280;4899;42.644;23.366;2022-07-19T01:30:10;94948.25;;;16.34;100.00
9721;BME280;4899;42.644;23.366;2022-07-19T01:32:37;94945.88;;;16.28;100.00
9721;BME280;4899;42.644;23.366;2022-07-19T01:35:06;94951.28;;;16.36;100.00
9721;BME280;4899;42.644;23.366;2022-07-19T01:37:33;94954.97;;;16.35;100.00
9721;BME280;4899;42.644;23.366;2022-07-19T01:40:01;94944.38;;;16.15;100.00
9721;BME280;4899;42.644;23.366;2022-07-19T01:42:28;94879.56;;;15.70;100.00
9721;BME280;4899;42.644;23.366;2022-07-19T01:44:55;94926.72;;;16.09;100.00
9721;BME280;4899;42.644;23.366;2022-07-19T01:47:22;94905.72;;;15.77;100.00
9721;BME280;4899;42.644;23.366;2022-07-19T01:49:49;94910.19;;;15.89;100.00
9721;BME280;4899;42.644;23.366;2022-07-19T01:52:16;94951.59;;;15.97;100.00
9721;BME280;4899;42.644;23.366;2022-07-19T01:54:43;94900.97;;;15.67;100.00
9721;BME280;4899;42.644;23.366;2022-07-19T01:57:12;94949.53;;;16.03;100.00
9721;BME280;4899;42.644;23.366;2022-07-19T01:59:39;94948.69;;;15.99;100.00
9721;BME280;4899;42.644;23.366;2022-07-19T02:02:06;94926.47;;;15.77;100.00
9721;BME280;4899;42.644;23.366;2022-07-19T02:04:33;94877.19;;;15.32;100.00
9721;BME280;4899;42.644;23.366;2022-07-19T02:07:00;94942.03;;;15.77;100.00
9721;BME280;4899;42.644;23.366;2022-07-19T02:09:27;94865.69;;;15.21;100.00
9721;BME280;4899;42.644;23.366;2022-07-19T02:11:54;94897.97;;;15.44;100.00
9721;BME280;4899;42.644;23.366;2022-07-19T02:14:22;94858.56;;;15.18;100.00
9721;BME280;4899;42.644;23.366;2022-07-19T02:16:49;94954.38;;;15.80;100.00
9721;BME280;4899;42.644;23.366;2022-07-19T02:19:16;94861.53;;;15.07;100.00
9721;BME280;4899;42.644;23.366;2022-07-19T02:21:43;94925.94;;;15.38;100.00
9721;BME280;4899;42.644;23.366;2022-07-19T02:24:10;94949.06;;;15.77;100.00
9721;BME280;4899;42.644;23.366;2022-07-19T02:26:37;94936.22;;;15.80;100.00
9721;BME280;4899;42.644;23.366;2022-07-19T02:29:04;94917.72;;;15.69;100.00
9721;BME280;4899;42.644;23.366;2022-07-19T02:31:33;94875.91;;;15.38;100.00
9721;BME280;4899;42.644;23.366;2022-07-19T02:33:59;94852.94;;;15.16;100.00
9721;BME280;4899;42.644;23.366;2022-07-19T02:36:26;94900.13;;;15.42;100.00
9721;BME280;4899;42.644;23.366;2022-07-19T02:38:53;94902.50;;;15.47;100.00
9721;BME280;4899;42.644;23.366;2022-07-19T02:41:21;94964.75;;;15.80;100.00
9721;BME280;4899;42.644;23.366;2022-07-19T02:43:48;94968.09;;;15.81;100.00
9721;BME280;4899;42.644;23.366;2022-07-19T02:46:15;94936.56;;;15.58;100.00
9721;BME280;4899;42.644;23.366;2022-07-19T02:48:43;94955.66;;;15.53;100.00
9721;BME280;4899;42.644;23.366;2022-07-19T02:51:10;94945.19;;;15.50;100.00
9721;BME280;4899;42.644;23.366;2022-07-19T02:53:37;94934.47;;;15.39;100.00
9721;BME280;4899;42.644;23.366;2022-07-19T02:56:04;94941.16;;;15.40;100.00
9721;BME280;4899;42.644;23.366;2022-07-19T02:58:31;94965.38;;;15.44;100.00
9721;BME280;4899;42.644;23.366;2022-07-19T03:00:58;94962.06;;;15.56;100.00
9721;BME280;4899;42.644;23.366;2022-07-19T03:03:25;94955.13;;;15.48;100.00
9721;BME280;4899;42.644;23.366;2022-07-19T03:06:15;94968.00;;;15.56;100.00
9721;BME280;4899;42.644;23.366;2022-07-19T03:08:42;94971.88;;;15.50;100.00
9721;BME280;4899;42.644;23.366;2022-07-19T03:11:09;94970.34;;;15.49;100.00
9721;BME280;4899;42.644;23.366;2022-07-19T03:13:36;94929.09;;;15.23;100.00
9721;BME280;4899;42.644;23.366;2022-07-19T03:16:04;94898.03;;;14.82;100.00
9721;BME280;4899;42.644;23.366;2022-07-19T03:18:31;94894.75;;;14.93;100.00
9721;BME280;4899;42.644;23.366;2022-07-19T03:20:58;94943.50;;;15.33;100.00
9721;BME280;4899;42.644;23.366;2022-07-19T03:23:27;94977.38;;;15.49;100.00
9721;BME280;4899;42.644;23.366;2022-07-19T03:25:54;94934.97;;;15.12;100.00
9721;BME280;4899;42.644;23.366;2022-07-19T03:28:20;94908.91;;;14.96;100.00
9721;BME280;4899;42.644;23.366;2022-07-19T03:30:47;94961.00;;;15.36;100.00
9721;BME280;4899;42.644;23.366;2022-07-19T03:33:14;94972.31;;;15.31;100.00
9721;BME280;4899;42.644;23.366;2022-07-19T03:35:42;94966.59;;;15.26;100.00
9721;BME280;4899;42.644;23.366;2022-07-19T03:38:10;94974.47;;;15.50;100.00
9721;BME280;4899;42.644;23.366;2022-07-19T03:40:38;94934.59;;;15.22;100.00
9721;BME280;4899;42.644;23.366;2022-07-19T03:43:06;94984.84;;;15.50;100.00
9721;BME280;4899;42.644;23.366;2022-07-19T03:45:33;94965.38;;;15.44;100.00
9721;BME280;4899;42.644;23.366;2022-07-19T03:48:00;94975.19;;;15.38;100.00
9721;BME280;4899;42.644;23.366;2022-07-19T03:50:27;94935.25;;;15.19;100.00
9721;BME280;4899;42.644;23.366;2022-07-19T03:52:54;94870.88;;;14.88;100.00
9721;BME280;4899;42.644;23.366;2022-07-19T03:55:21;94931.19;;;15.30;100.00
9721;BME280;4899;42.644;23.366;2022-07-19T03:57:50;94949.69;;;15.41;100.00
9721;BME280;4899;42.644;23.366;2022-07-19T04:00:17;94913.44;;;15.20;100.00
9721;BME280;4899;42.644;23.366;2022-07-19T04:02:43;94992.78;;;15.87;100.00
9721;BME280;4899;42.644;23.366;2022-07-19T04:05:10;94990.63;;;15.89;100.00
9721;BME280;4899;42.644;23.366;2022-07-19T04:07:38;95009.53;;;15.89;100.00
9721;BME280;4899;42.644;23.366;2022-07-19T04:10:06;94970.03;;;15.72;100.00
9721;BME280;4899;42.644;23.366;2022-07-19T04:12:33;94993.13;;;15.97;100.00
9721;BME280;4899;42.644;23.366;2022-07-19T04:15:01;94885.06;;;15.35;100.00
9721;BME280;4899;42.644;23.366;2022-07-19T04:17:28;94972.56;;;15.92;100.00
9721;BME280;4899;42.644;23.366;2022-07-19T04:19:55;94989.59;;;16.14;100.00
9721;BME280;4899;42.644;23.366;2022-07-19T04:22:22;94997.28;;;16.23;100.00
9721;BME280;4899;42.644;23.366;2022-07-19T04:24:50;94975.72;;;16.10;100.00
9721;BME280;4899;42.644;23.366;2022-07-19T04:27:17;94975.72;;;16.10;100.00
9721;BME280;4899;42.644;23.366;2022-07-19T04:29:44;94963.81;;;16.09;100.00
9721;BME280;4899;42.644;23.366;2022-07-19T04:32:13;94999.13;;;16.35;100.00
9721;BME280;4899;42.644;23.366;2022-07-19T04:34:40;95004.75;;;16.49;100.00
9721;BME280;4899;42.644;23.366;2022-07-19T04:37:06;94995.66;;;16.55;100.00
9721;BME280;4899;42.644;23.366;2022-07-19T04:39:33;94941.34;;;16.25;100.00
9721;BME280;4899;42.644;23.366;2022-07-19T04:42:00;94995.66;;;16.55;100.00
9721;BME280;4899;42.644;23.366;2022-07-19T04:44:27;94964.09;;;16.41;100.00
9721;BME280;4899;42.644;23.366;2022-07-19T04:46:54;94958.88;;;16.53;100.00
9721;BME280;4899;42.644;23.366;2022-07-19T04:49:22;94989.53;;;16.72;100.00
9721;BME280;4899;42.644;23.366;2022-07-19T04:51:49;94953.91;;;16.48;100.00
9721;BME280;4899;42.644;23.366;2022-07-19T04:54:16;94899.06;;;16.25;100.00
9721;BME280;4899;42.644;23.366;2022-07-19T04:56:43;95005.28;;;17.03;100.00
9721;BME280;4899;42.644;23.366;2022-07-19T04:59:10;94980.31;;;16.86;100.00
9721;BME280;4899;42.644;23.366;2022-07-19T05:01:37;94942.19;;;16.78;100.00
9721;BME280;4899;42.644;23.366;2022-07-19T05:04:04;95031.34;;;17.31;100.00
9721;BME280;4899;42.644;23.366;2022-07-19T05:06:32;94991.72;;;17.22;100.00
9721;BME280;4899;42.644;23.366;2022-07-19T05:08:59;94946.25;;;17.04;100.00
9721;BME280;4899;42.644;23.366;2022-07-19T05:11:26;94998.84;;;17.37;100.00
9721;BME280;4899;42.644;23.366;2022-07-19T05:13:53;94998.00;;;17.61;100.00
9721;BME280;4899;42.644;23.366;2022-07-19T05:16:20;95016.97;;;17.62;100.00
9721;BME280;4899;42.644;23.366;2022-07-19T05:18:47;95011.63;;;17.70;100.00
9721;BME280;4899;42.644;23.366;2022-07-19T05:21:14;94981.00;;;17.51;100.00
9721;BME280;4899;42.644;23.366;2022-07-19T05:23:42;94952.44;;;17.39;100.00
9721;BME280;4899;42.644;23.366;2022-07-19T05:26:09;94956.25;;;17.58;100.00
9721;BME280;4899;42.644;23.366;2022-07-19T05:28:36;95011.38;;;18.03;100.00
9721;BME280;4899;42.644;23.366;2022-07-19T05:31:04;94992.53;;;17.94;100.00
9721;BME280;4899;42.644;23.366;2022-07-19T05:33:31;94941.59;;;17.65;100.00
9721;BME280;4899;42.644;23.366;2022-07-19T05:35:58;94953.56;;;17.82;100.00
9721;BME280;4899;42.644;23.366;2022-07-19T05:38:25;95020.13;;;18.27;100.00
9721;BME280;4899;42.644;23.366;2022-07-19T05:40:55;95018.47;;;18.34;100.00
9721;BME280;4899;42.644;23.366;2022-07-19T05:43:22;95000.38;;;18.26;100.00
9721;BME280;4899;42.644;23.366;2022-07-19T05:45:49;94962.16;;;18.14;100.00
9721;BME280;4899;42.644;23.366;2022-07-19T05:48:16;94963.19;;;18.09;100.00
9721;BME280;4899;42.644;23.366;2022-07-19T05:50:42;95019.81;;;18.60;100.00
9721;BME280;4899;42.644;23.366;2022-07-19T05:53:09;95008.44;;;18.52;100.00
9721;BME280;4899;42.644;23.366;2022-07-19T05:55:37;94911.16;;;17.97;100.00
9721;BME280;4899;42.644;23.366;2022-07-19T05:58:05;95023.25;;;18.80;100.00
9721;BME280;4899;42.644;23.366;2022-07-19T06:00:32;95016.00;;;18.89;100.00
9721;BME280;4899;42.644;23.366;2022-07-19T06:02:59;95004.66;;;18.81;100.00
9721;BME280;4899;42.644;23.366;2022-07-19T06:05:26;95035.06;;;19.09;100.00
9721;BME280;4899;42.644;23.366;2022-07-19T06:07:53;94988.84;;;18.90;100.00
9721;BME280;4899;42.644;23.366;2022-07-19T06:10:20;95020.47;;;19.23;100.00
9721;BME280;4899;42.644;23.366;2022-07-19T06:12:47;94990.91;;;19.00;100.00
9721;BME280;4899;42.644;23.366;2022-07-19T06:15:15;94969.03;;;19.04;100.00
9721;BME280;4899;42.644;23.366;2022-07-19T06:17:42;94949.19;;;19.00;100.00
9721;BME280;4899;42.644;23.366;2022-07-19T06:20:10;94996.94;;;19.39;100.00
9721;BME280;4899;42.644;23.366;2022-07-19T06:22:37;94972.06;;;19.26;100.00
9721;BME280;4899;42.644;23.366;2022-07-19T06:25:05;95022.16;;;19.70;100.00
9721;BME280;4899;42.644;23.366;2022-07-19T06:27:32;94928.56;;;19.11;100.00
9721;BME280;4899;42.644;23.366;2022-07-19T06:29:59;95018.38;;;19.87;100.00
9721;BME280;4899;42.644;23.366;2022-07-19T06:32:27;95022.63;;;19.95;100.00
9721;BME280;4899;42.644;23.366;2022-07-19T06:34:54;94962.25;;;19.58;100.00
9721;BME280;4899;42.644;23.366;2022-07-19T06:37:21;95011.53;;;20.02;100.00
9721;BME280;4899;42.644;23.366;2022-07-19T06:39:48;94992.63;;;20.08;100.00
9721;BME280;4899;42.644;23.366;2022-07-19T06:42:15;95011.56;;;20.24;100.00
9721;BME280;4899;42.644;23.366;2022-07-19T06:44:42;94986.22;;;20.06;100.00
9721;BME280;4899;42.644;23.366;2022-07-19T06:47:09;94966.09;;;20.06;100.00
9721;BME280;4899;42.644;23.366;2022-07-19T06:49:37;95005.34;;;20.55;100.00
9721;BME280;4899;42.644;23.366;2022-07-19T06:52:04;94918.56;;;19.97;100.00
9721;BME280;4899;42.644;23.366;2022-07-19T06:54:31;95008.19;;;20.70;100.00
9721;BME280;4899;42.644;23.366;2022-07-19T06:56:59;95001.53;;;20.76;100.00
9721;BME280;4899;42.644;23.366;2022-07-19T06:59:25;94964.03;;;20.65;100.00
9721;BME280;4899;42.644;23.366;2022-07-19T07:01:52;94979.06;;;20.71;100.00
9721;BME280;4899;42.644;23.366;2022-07-19T07:04:19;94998.13;;;20.98;100.00
9721;BME280;4899;42.644;23.366;2022-07-19T07:06:47;94949.28;;;20.79;100.00
9721;BME280;4899;42.644;23.366;2022-07-19T07:09:14;94986.44;;;21.18;100.00
9721;BME280;4899;42.644;23.366;2022-07-19T07:11:41;95014.75;;;21.39;100.00
9721;BME280;4899;42.644;23.366;2022-07-19T07:14:08;94993.78;;;21.36;100.00
9721;BME280;4899;42.644;23.366;2022-07-19T07:16:35;94947.50;;;21.13;100.00
9721;BME280;4899;42.644;23.366;2022-07-19T07:19:02;94975.84;;;21.38;100.00
9721;BME280;4899;42.644;23.366;2022-07-19T07:21:29;95002.03;;;21.71;100.00
9721;BME280;4899;42.644;23.366;2022-07-19T07:24:00;95005.09;;;21.80;100.00
9721;BME280;4899;42.644;23.366;2022-07-19T07:26:27;94964.41;;;21.53;100.00
9721;BME280;4899;42.644;23.366;2022-07-19T07:28:54;94961.91;;;21.64;100.00
9721;BME280;4899;42.644;23.366;2022-07-19T07:31:21;94992.41;;;21.83;97.34
9721;BME280;4899;42.644;23.366;2022-07-19T07:33:48;95001.41;;;22.22;90.09
9721;BME280;4899;42.644;23.366;2022-07-19T07:36:14;94996.56;;;22.24;90.92
9721;BME280;4899;42.644;23.366;2022-07-19T07:38:41;94980.81;;;22.21;91.14
9721;BME280;4899;42.644;23.366;2022-07-19T07:41:10;95012.84;;;22.44;90.10
9721;BME280;4899;42.644;23.366;2022-07-19T07:43:37;94948.50;;;22.06;81.16
9721;BME280;4899;42.644;23.366;2022-07-19T07:46:04;94976.84;;;22.37;86.84
9721;BME280;4899;42.644;23.366;2022-07-19T07:48:31;95006.97;;;22.61;85.75
9721;BME280;4899;42.644;23.366;2022-07-19T07:50:58;94999.53;;;22.67;77.11
9721;BME280;4899;42.644;23.366;2022-07-19T07:53:24;94986.44;;;22.70;81.41
9721;BME280;4899;42.644;23.366;2022-07-19T07:55:51;95000.03;;;22.83;78.38
9721;BME280;4899;42.644;23.366;2022-07-19T07:58:20;95001.94;;;22.90;75.76
9721;BME280;4899;42.644;23.366;2022-07-19T08:00:46;95000.88;;;23.01;76.54
9721;BME280;4899;42.644;23.366;2022-07-19T08:03:13;94994.56;;;23.10;74.95
9721;BME280;4899;42.644;23.366;2022-07-19T08:05:42;94995.75;;;23.23;74.48
9721;BME280;4899;42.644;23.366;2022-07-19T08:08:12;94997.25;;;23.27;65.74
9721;BME280;4899;42.644;23.366;2022-07-19T08:10:39;94987.91;;;23.30;69.35
9721;BME280;4899;42.644;23.366;2022-07-19T08:13:06;94995.75;;;23.23;68.67
9721;BME280;4899;42.644;23.366;2022-07-19T08:15:35;94960.38;;;22.95;68.31
9721;BME280;4899;42.644;23.366;2022-07-19T08:18:02;95008.50;;;23.28;70.91
9721;BME280;4899;42.644;23.366;2022-07-19T08:20:29;94948.00;;;22.99;69.94
9721;BME280;4899;42.644;23.366;2022-07-19T08:22:56;94960.94;;;23.40;66.04
9721;BME280;4899;42.644;23.366;2022-07-19T08:25:23;94946.31;;;23.39;58.70
9721;BME280;4899;42.644;23.366;2022-07-19T08:27:50;94997.09;;;23.79;59.79
9721;BME280;4899;42.644;23.366;2022-07-19T08:30:17;95005.44;;;24.06;60.64
9721;BME280;4899;42.644;23.366;2022-07-19T08:32:45;94996.44;;;24.17;59.18
9721;BME280;4899;42.644;23.366;2022-07-19T08:35:12;94980.28;;;24.22;54.76
9721;BME280;4899;42.644;23.366;2022-07-19T08:37:39;94940.44;;;24.03;53.88
9721;BME280;4899;42.644;23.366;2022-07-19T08:40:07;94995.34;;;24.40;54.57
9721;BME280;4899;42.644;23.366;2022-07-19T08:42:34;94982.94;;;24.44;53.76
9721;BME280;4899;42.644;23.366;2022-07-19T08:45:03;94973.94;;;24.31;52.01
9721;BME280;4899;42.644;23.366;2022-07-19T08:47:31;94975.03;;;24.51;51.77
9721;BME280;4899;42.644;23.366;2022-07-19T08:50:00;94984.81;;;24.68;51.92
9721;BME280;4899;42.644;23.366;2022-07-19T08:52:27;94978.41;;;24.73;51.16
9721;BME280;4899;42.644;23.366;2022-07-19T08:54:55;94923.53;;;24.53;54.74
9721;BME280;4899;42.644;23.366;2022-07-19T08:57:22;94975.34;;;24.92;53.93
9721;BME280;4899;42.644;23.366;2022-07-19T09:00:07;94968.97;;;25.00;51.96
9721;BME280;4899;42.644;23.366;2022-07-19T09:02:34;94987.75;;;25.13;52.83
9721;BME280;4899;42.644;23.366;2022-07-19T09:05:04;94981.69;;;25.23;51.21
9721;BME280;4899;42.644;23.366;2022-07-19T09:07:33;94988.44;;;25.28;49.16
9721;BME280;4899;42.644;23.366;2022-07-19T09:10:18;94981.69;;;25.23;50.34
9721;BME280;4899;42.644;23.366;2022-07-19T09:13:04;94989.91;;;25.39;50.38
9721;BME280;4899;42.644;23.366;2022-07-19T09:15:42;94959.16;;;25.15;48.75
9721;BME280;4899;42.644;23.366;2022-07-19T09:18:11;94918.56;;;24.95;49.83
9721;BME280;4899;42.644;23.366;2022-07-19T09:20:40;94980.09;;;25.43;50.43
9721;BME280;4899;42.644;23.366;2022-07-19T09:23:08;94984.28;;;25.37;49.63
9721;BME280;4899;42.644;23.366;2022-07-19T09:25:36;94972.28;;;25.29;50.20
9721;BME280;4899;42.644;23.366;2022-07-19T09:28:04;94946.38;;;25.03;49.22
9721;BME280;4899;42.644;23.366;2022-07-19T09:30:32;94950.81;;;25.27;52.74
9721;BME280;4899;42.644;23.366;2022-07-19T09:33:06;94979.00;;;25.37;52.75
9721;BME280;4899;42.644;23.366;2022-07-19T09:35:35;94959.09;;;25.29;52.03
9721;BME280;4899;42.644;23.366;2022-07-19T09:38:23;94971.81;;;25.45;50.48
9721;BME280;4899;42.644;23.366;2022-07-19T09:40:52;94908.78;;;24.95;50.04
9721;BME280;4899;42.644;23.366;2022-07-19T09:43:20;94969.19;;;25.41;49.89
9721;BME280;4899;42.644;23.366;2022-07-19T09:45:48;94945.19;;;25.25;55.10
9721;BME280;4899;42.644;23.366;2022-07-19T09:48:16;94929.75;;;25.31;53.68
9721;BME280;4899;42.644;23.366;2022-07-19T09:50:46;94911.66;;;25.33;50.60
9721;BME280;4899;42.644;23.366;2022-07-19T09:53:15;94945.72;;;25.79;53.91
9721;BME280;4899;42.644;23.366;2022-07-19T09:55:45;94961.56;;;26.27;48.89
9721;BME280;4899;42.644;23.366;2022-07-19T09:58:13;94945.03;;;26.20;51.48
9721;BME280;4899;42.644;23.366;2022-07-19T10:00:41;94956.97;;;26.39;49.82
9721;BME280;4899;42.644;23.366;2022-07-19T10:03:09;94955.16;;;26.73;50.95
9721;BME280;4899;42.644;23.366;2022-07-19T10:05:37;94920.53;;;26.19;45.69
9721;BME280;4899;42.644;23.366;2022-07-19T10:08:05;94899.84;;;26.18;45.30
9721;BME280;4899;42.644;23.366;2022-07-19T10:10:33;94956.84;;;26.56;45.35
9721;BME280;4899;42.644;23.366;2022-07-19T10:13:01;94952.19;;;26.67;45.68
9721;BME280;4899;42.644;23.366;2022-07-19T10:15:31;94936.91;;;26.86;46.11
9721;BME280;4899;42.644;23.366;2022-07-19T10:18:08;94934.63;;;26.88;43.88
9721;BME280;4899;42.644;23.366;2022-07-19T10:20:36;94950.63;;;27.11;44.10
9721;BME280;4899;42.644;23.366;2022-07-19T10:23:05;94945.16;;;27.25;45.55
9721;BME280;4899;42.644;23.366;2022-07-19T10:25:41;94927.78;;;27.58;46.87
9721;BME280;4899;42.644;23.366;2022-07-19T10:28:29;94949.25;;;27.91;43.44
9721;BME280;4899;42.644;23.366;2022-07-19T10:30:57;94944.25;;;27.97;42.94
9721;BME280;4899;42.644;23.366;2022-07-19T10:33:27;94853.75;;;27.32;43.13
9721;BME280;4899;42.644;23.366;2022-07-19T10:35:54;94945.72;;;28.01;42.61
9721;BME280;4899;42.644;23.366;2022-07-19T10:38:21;94926.41;;;28.04;42.41
9721;BME280;4899;42.644;23.366;2022-07-19T10:40:50;94843.84;;;27.66;42.65
9721;BME280;4899;42.644;23.366;2022-07-19T10:43:22;94958.47;;;28.57;42.85
9721;BME280;4899;42.644;23.366;2022-07-19T10:46:09;94947.16;;;28.76;41.04
9721;BME280;4899;42.644;23.366;2022-07-19T10:48:38;94843.47;;;28.58;41.90
9721;BME280;4899;42.644;23.366;2022-07-19T10:51:06;94933.06;;;29.78;39.98
9721;BME280;4899;42.644;23.366;2022-07-19T10:53:54;94937.94;;;29.80;39.03
9721;BME280;4899;42.644;23.366;2022-07-19T10:56:24;94848.22;;;28.86;39.91
9721;BME280;4899;42.644;23.366;2022-07-19T10:58:53;94922.56;;;28.56;41.35
9721;BME280;4899;42.644;23.366;2022-07-19T11:01:23;94917.72;;;29.14;41.07
9721;BME280;4899;42.644;23.366;2022-07-19T11:03:53;94919.41;;;30.12;39.18
9721;BME280;4899;42.644;23.366;2022-07-19T11:06:22;94909.91;;;29.95;38.36
9721;BME280;4899;42.644;23.366;2022-07-19T11:08:53;94832.03;;;28.80;40.36
9721;BME280;4899;42.644;23.366;2022-07-19T11:11:21;94866.03;;;28.42;40.59
9721;BME280;4899;42.644;23.366;2022-07-19T11:13:49;94921.50;;;28.49;41.47
9721;BME280;4899;42.644;23.366;2022-07-19T11:16:17;94915.09;;;28.51;42.37
9721;BME280;4899;42.644;23.366;2022-07-19T11:18:46;94913.50;;;29.88;41.13
9721;BME280;4899;42.644;23.366;2022-07-19T11:21:14;94883.31;;;30.89;38.35
9721;BME280;4899;42.644;23.366;2022-07-19T11:23:42;94871.56;;;30.45;38.72
9721;BME280;4899;42.644;23.366;2022-07-19T11:26:10;94854.22;;;29.79;40.69
9721;BME280;4899;42.644;23.366;2022-07-19T11:28:39;94833.78;;;29.27;39.89
9721;BME280;4899;42.644;23.366;2022-07-19T11:31:15;94905.44;;;29.76;39.01
9721;BME280;4899;42.644;23.366;2022-07-19T11:33:43;94882.69;;;31.65;37.66
9721;BME280;4899;42.644;23.366;2022-07-19T11:36:12;94811.53;;;33.13;34.44
9721;BME280;4899;42.644;23.366;2022-07-19T11:38:42;94922.44;;;34.34;32.72
9721;BME280;4899;42.644;23.366;2022-07-19T11:41:14;94851.59;;;33.22;34.04
9721;BME280;4899;42.644;23.366;2022-07-19T11:43:42;94912.00;;;32.94;35.46
9721;BME280;4899;42.644;23.366;2022-07-19T11:46:09;94818.31;;;33.94;33.94
9721;BME280;4899;42.644;23.366;2022-07-19T11:48:36;94839.56;;;34.16;34.92
9721;BME280;4899;42.644;23.366;2022-07-19T11:51:05;94830.53;;;36.33;31.64
9721;BME280;4899;42.644;23.366;2022-07-19T11:53:36;94913.44;;;38.75;31.00
9721;BME280;4899;42.644;23.366;2022-07-19T11:56:04;94905.38;;;39.95;29.63
9721;BME280;4899;42.644;23.366;2022-07-19T11:58:32;94920.03;;;41.36;27.59
9721;BME280;4899;42.644;23.366;2022-07-19T12:01:04;94898.00;;;42.29;26.47
9721;BME280;4899;42.644;23.366;2022-07-19T12:03:31;94925.09;;;42.12;23.83
9721;BME280;4899;42.644;23.366;2022-07-19T12:05:59;94912.06;;;42.05;24.43
9721;BME280;4899;42.644;23.366;2022-07-19T12:08:37;94907.16;;;42.09;23.55
9721;BME280;4899;42.644;23.366;2022-07-19T12:11:21;94897.97;;;39.90;25.13
9721;BME280;4899;42.644;23.366;2022-07-19T12:13:49;94884.84;;;37.26;26.66
9721;BME280;4899;42.644;23.366;2022-07-19T12:16:17;94842.63;;;37.97;27.14
9721;BME280;4899;42.644;23.366;2022-07-19T12:18:47;94880.69;;;38.15;27.33
9721;BME280;4899;42.644;23.366;2022-07-19T12:21:23;94844.25;;;35.55;27.68
9721;BME280;4899;42.644;23.366;2022-07-19T12:24:20;94892.13;;;34.37;29.20
9721;BME280;4899;42.644;23.366;2022-07-19T12:27:04;94871.31;;;33.24;30.56
9721;BME280;4899;42.644;23.366;2022-07-19T12:29:33;94813.16;;;32.79;31.49
9721;BME280;4899;42.644;23.366;2022-07-19T12:32:02;94865.22;;;35.05;29.34
9721;BME280;4899;42.644;23.366;2022-07-19T12:34:41;94866.63;;;35.66;28.97
9721;BME280;4899;42.644;23.366;2022-07-19T12:37:23;94871.91;;;33.59;30.50
9721;BME280;4899;42.644;23.366;2022-07-19T12:40:05;94833.47;;;31.95;31.32
9721;BME280;4899;42.644;23.366;2022-07-19T12:42:40;94878.63;;;31.47;33.09
9721;BME280;4899;42.644;23.366;2022-07-19T12:45:10;94876.19;;;32.04;31.96
9721;BME280;4899;42.644;23.366;2022-07-19T12:47:37;94864.53;;;34.59;30.73
9721;BME280;4899;42.644;23.366;2022-07-19T12:50:04;94862.03;;;36.92;27.64
9721;BME280;4899;42.644;23.366;2022-07-19T12:52:31;94859.22;;;38.82;25.90
9721;BME280;4899;42.644;23.366;2022-07-19T12:54:58;94871.81;;;39.96;25.17
9721;BME280;4899;42.644;23.366;2022-07-19T12:57:27;94845.13;;;37.01;26.27
9721;BME280;4899;42.644;23.366;2022-07-19T12:59:54;94802.56;;;34.88;27.83
9721;BME280;4899;42.644;23.366;2022-07-19T13:02:21;94844.00;;;34.83;29.01
9721;BME280;4899;42.644;23.366;2022-07-19T13:04:48;94844.34;;;34.48;28.99
9721;BME280;4899;42.644;23.366;2022-07-19T13:07:15;94830.97;;;34.39;30.30
9721;BME280;4899;42.644;23.366;2022-07-19T13:09:42;94856.22;;;37.08;28.20
9721;BME280;4899;42.644;23.366;2022-07-19T13:12:09;94804.56;;;38.70;25.15